Time;durP1;ratioP1;P1;durP2;ratioP2;P2;SDS_P1;SDS_P2;PMS_P1;PMS_P2;Temp;Humidity;BMP_temperature;BMP_pressure;BME280_temperature;BME280_humidity;BME280_pressure;Samples;Min_cycle;Max_cycle;Signal;HPM_P1;HPM_P2
2024/04/26 00:01:55;;;;;;;16.95;7.03;;;6.90;99.90;;;;;;5350029;26;20017;-69
2024/04/26 00:04:20;;;;;;;16.60;6.13;;;6.90;99.90;;;;;;5327825;26;20029;-68
2024/04/26 00:06:46;;;;;;;13.70;5.88;;;6.90;99.90;;;;;;5355306;26;20012;-70
2024/04/26 00:09:11;;;;;;;13.98;5.60;;;6.90;99.90;;;;;;5352699;26;20053;-67
2024/04/26 00:11:40;;;;;;;14.52;6.15;;;6.90;99.90;;;;;;5353408;26;20001;-69
2024/04/26 00:14:06;;;;;;;12.52;5.95;;;6.90;99.90;;;;;;5352741;26;20004;-70
2024/04/26 00:16:38;;;;;;;13.10;5.60;;;6.90;99.90;;;;;;5357425;26;20008;-75
2024/04/26 00:19:04;;;;;;;14.45;6.05;;;6.90;99.90;;;;;;5350941;26;20334;-70
2024/04/26 00:21:29;;;;;;;14.07;5.20;;;6.90;99.90;;;;;;5351567;26;20031;-69
2024/04/26 00:23:55;;;;;;;17.15;6.05;;;6.80;99.90;;;;;;5345772;26;20001;-70
2024/04/26 00:26:20;;;;;;;12.88;5.45;;;6.80;99.90;;;;;;5357441;26;20005;-70
2024/04/26 00:28:46;;;;;;;14.63;5.97;;;6.80;99.90;;;;;;5351412;26;20016;-70
2024/04/26 00:31:11;;;;;;;12.60;5.65;;;6.80;99.90;;;;;;5358749;26;21878;-69
2024/04/26 00:33:38;;;;;;;12.95;5.10;;;6.80;99.90;;;;;;5355826;26;20011;-72
2024/04/26 00:36:04;;;;;;;10.75;5.18;;;6.80;99.90;;;;;;5352072;26;20015;-70
2024/04/26 00:38:30;;;;;;;9.93;4.63;;;6.70;99.90;;;;;;5355988;26;20016;-73
2024/04/26 00:40:55;;;;;;;10.50;5.50;;;6.70;99.90;;;;;;5357479;26;20008;-70
2024/04/26 00:43:21;;;;;;;18.02;5.50;;;6.70;99.90;;;;;;5362097;26;20010;-70
2024/04/26 00:45:46;;;;;;;13.52;5.40;;;6.70;99.90;;;;;;5325516;26;20016;-70
2024/04/26 00:48:12;;;;;;;18.85;5.15;;;6.70;99.90;;;;;;5352806;26;20000;-69
2024/04/26 00:50:38;;;;;;;10.90;5.32;;;6.60;99.90;;;;;;5355069;26;19996;-69
2024/04/26 00:53:04;;;;;;;10.77;5.10;;;6.60;99.90;;;;;;5363717;26;19999;-69
2024/04/26 00:55:31;;;;;;;11.55;4.93;;;6.60;99.90;;;;;;5359232;26;20012;-70
2024/04/26 00:57:57;;;;;;;12.18;5.40;;;6.60;99.90;;;;;;5357386;26;20000;-71
2024/04/26 01:00:23;;;;;;;15.00;6.15;;;6.60;99.90;;;;;;5354633;26;20043;-70
2024/04/26 01:02:50;;;;;;;23.73;6.03;;;6.60;99.90;;;;;;5349227;26;19997;-69
2024/04/26 01:05:15;;;;;;;14.43;6.07;;;6.50;99.90;;;;;;5356832;26;20003;-71
2024/04/26 01:07:41;;;;;;;11.55;5.05;;;6.60;99.90;;;;;;5350690;26;20000;-71
2024/04/26 01:10:07;;;;;;;15.45;5.35;;;6.60;99.90;;;;;;5357628;26;20001;-70
2024/04/26 01:12:32;;;;;;;11.43;5.45;;;6.60;99.90;;;;;;5357060;26;20015;-70
2024/04/26 01:14:58;;;;;;;11.27;5.38;;;6.60;99.90;;;;;;5353883;26;20015;-70
2024/04/26 01:17:23;;;;;;;14.40;5.53;;;6.60;99.90;;;;;;5359098;26;20012;-69
2024/04/26 01:19:49;;;;;;;12.70;5.40;;;6.60;99.90;;;;;;5351766;26;20041;-68
2024/04/26 01:22:38;;;;;;;12.80;6.00;;;6.60;99.90;;;;;;5361538;26;20000;-69
2024/04/26 01:25:04;;;;;;;12.98;5.43;;;6.60;99.90;;;;;;5355576;26;20091;-69
2024/04/26 01:27:29;;;;;;;11.48;5.35;;;6.60;99.90;;;;;;5357389;26;20365;-68
2024/04/26 01:29:55;;;;;;;15.60;6.07;;;6.60;99.90;;;;;;5358659;26;20000;-69
2024/04/26 01:32:21;;;;;;;17.20;6.00;;;6.60;99.90;;;;;;5359129;26;20539;-73
2024/04/26 01:34:46;;;;;;;12.70;6.22;;;6.60;99.90;;;;;;5351503;26;20016;-70
2024/04/26 01:37:12;;;;;;;13.85;5.70;;;6.60;99.90;;;;;;5359736;26;20016;-69
2024/04/26 01:39:37;;;;;;;15.98;6.43;;;6.60;99.90;;;;;;5325738;26;20000;-68
2024/04/26 01:42:03;;;;;;;16.73;6.63;;;6.60;99.90;;;;;;5355440;26;20343;-69
2024/04/26 01:44:30;;;;;;;17.98;7.80;;;6.60;99.90;;;;;;5358555;26;20078;-70
2024/04/26 01:46:56;;;;;;;20.52;6.88;;;6.60;99.90;;;;;;5358113;26;20004;-71
2024/04/26 01:49:22;;;;;;;12.80;6.35;;;6.60;99.90;;;;;;5327150;26;20051;-71
2024/04/26 01:51:48;;;;;;;13.07;6.05;;;6.60;99.90;;;;;;5356366;26;20005;-73
2024/04/26 01:54:13;;;;;;;13.85;5.85;;;6.60;99.90;;;;;;5355429;26;20029;-72
2024/04/26 01:56:39;;;;;;;12.77;6.72;;;6.60;99.90;;;;;;5356704;26;20077;-70
2024/04/26 01:59:04;;;;;;;14.73;7.25;;;6.60;99.90;;;;;;5354314;26;20374;-69
2024/04/26 02:01:30;;;;;;;14.65;6.72;;;6.60;99.90;;;;;;5355819;26;20732;-70
2024/04/26 02:03:57;;;;;;;15.32;7.18;;;6.60;99.90;;;;;;5354423;26;20516;-71
2024/04/26 02:06:22;;;;;;;16.25;6.60;;;6.60;99.90;;;;;;5358876;26;20001;-73
2024/04/26 02:08:48;;;;;;;19.63;6.72;;;6.60;99.90;;;;;;5355304;26;20005;-70
2024/04/26 02:11:13;;;;;;;19.55;7.78;;;6.60;99.90;;;;;;5358197;26;20445;-66
2024/04/26 02:13:41;;;;;;;17.05;7.00;;;6.60;99.90;;;;;;5355178;26;20044;-70
2024/04/26 02:16:07;;;;;;;14.82;6.85;;;6.60;99.90;;;;;;5356221;26;20057;-72
2024/04/26 02:18:33;;;;;;;15.00;6.82;;;6.60;99.90;;;;;;5355075;26;20000;-70
2024/04/26 02:20:59;;;;;;;17.05;7.18;;;6.60;99.90;;;;;;5360916;26;20450;-70
2024/04/26 02:23:24;;;;;;;11.07;5.82;;;6.60;99.90;;;;;;5363682;26;20004;-70
2024/04/26 02:25:50;;;;;;;18.50;7.40;;;6.60;99.90;;;;;;5352055;26;20022;-70
2024/04/26 02:28:15;;;;;;;11.98;5.53;;;6.60;99.90;;;;;;5358068;26;19997;-71
2024/04/26 02:30:41;;;;;;;12.18;5.65;;;6.60;99.90;;;;;;5321540;26;20470;-73
2024/04/26 02:33:06;;;;;;;16.60;5.85;;;6.70;99.90;;;;;;5351165;26;20012;-71
2024/04/26 02:35:32;;;;;;;11.88;5.70;;;6.60;99.90;;;;;;5359718;26;20452;-71
2024/04/26 02:37:59;;;;;;;14.35;5.10;;;6.60;99.90;;;;;;5324197;26;20021;-71
2024/04/26 02:40:25;;;;;;;13.43;6.25;;;6.60;99.90;;;;;;5333083;26;19996;-70
2024/04/26 02:42:50;;;;;;;15.25;5.85;;;6.60;99.90;;;;;;5351523;26;20011;-71
2024/04/26 02:45:16;;;;;;;16.40;6.60;;;6.60;99.90;;;;;;5352122;26;20011;-71
2024/04/26 02:47:41;;;;;;;9.90;5.32;;;6.60;99.90;;;;;;5358517;26;20452;-71
2024/04/26 02:50:07;;;;;;;12.43;5.07;;;6.60;99.90;;;;;;5350416;26;19997;-70
2024/04/26 02:52:32;;;;;;;16.27;6.10;;;6.60;99.90;;;;;;5357751;26;20344;-70
2024/04/26 02:54:58;;;;;;;12.48;5.50;;;6.60;99.90;;;;;;5321455;26;20449;-68
2024/04/26 02:57:24;;;;;;;9.98;4.40;;;6.60;99.90;;;;;;5354696;26;19997;-69
2024/04/26 02:59:49;;;;;;;13.10;5.40;;;6.60;99.90;;;;;;5355844;26;20530;-71
2024/04/26 03:02:19;;;;;;;10.43;4.93;;;6.60;99.90;;;;;;5353321;26;20009;-70
2024/04/26 03:04:45;;;;;;;15.25;4.97;;;6.60;99.90;;;;;;5355323;26;20015;-68
2024/04/26 03:07:15;;;;;;;10.60;4.30;;;6.60;99.90;;;;;;5354927;26;20000;-69
2024/04/26 03:09:41;;;;;;;13.65;6.30;;;6.60;99.90;;;;;;5354779;26;20000;-69
2024/04/26 03:12:07;;;;;;;14.38;5.60;;;6.60;99.90;;;;;;5350241;26;20476;-73
2024/04/26 03:14:33;;;;;;;11.65;4.80;;;6.50;99.90;;;;;;5351243;26;20012;-68
2024/04/26 03:16:58;;;;;;;10.57;5.35;;;6.50;99.90;;;;;;5353622;26;20000;-68
2024/04/26 03:19:27;;;;;;;12.52;4.82;;;6.50;99.90;;;;;;5354549;26;20351;-72
2024/04/26 03:21:52;;;;;;;11.10;5.25;;;6.50;99.90;;;;;;5358587;26;20074;-70
2024/04/26 03:24:18;;;;;;;12.93;5.38;;;6.50;99.90;;;;;;5354031;26;20454;-71
2024/04/26 03:26:46;;;;;;;15.35;5.60;;;6.50;99.90;;;;;;5355698;26;20004;-70
2024/04/26 03:29:12;;;;;;;12.13;5.45;;;6.50;99.90;;;;;;5351066;26;20004;-72
2024/04/26 03:31:38;;;;;;;13.82;5.25;;;6.50;99.90;;;;;;5357181;26;20001;-70
2024/04/26 03:34:03;;;;;;;15.75;5.35;;;6.50;99.90;;;;;;5353586;26;20350;-70
2024/04/26 03:36:29;;;;;;;13.48;5.53;;;6.50;99.90;;;;;;5356070;26;20001;-72
2024/04/26 03:38:54;;;;;;;11.90;5.65;;;6.50;99.90;;;;;;5354009;26;20000;-67
2024/04/26 03:41:20;;;;;;;13.05;5.78;;;6.50;99.90;;;;;;5356259;26;20081;-71
2024/04/26 03:43:46;;;;;;;11.15;4.60;;;6.40;99.90;;;;;;5348719;26;20001;-71
2024/04/26 03:46:11;;;;;;;14.68;6.25;;;6.50;99.90;;;;;;5352758;26;19997;-72
2024/04/26 03:48:37;;;;;;;15.18;5.65;;;6.40;99.90;;;;;;5357843;26;20010;-71
2024/04/26 03:51:02;;;;;;;11.35;5.50;;;6.50;99.90;;;;;;5348521;26;20046;-71
2024/04/26 03:53:28;;;;;;;13.63;6.32;;;6.40;99.90;;;;;;5359033;26;20048;-71
2024/04/26 03:55:53;;;;;;;13.13;5.45;;;6.40;99.90;;;;;;5354195;26;19997;-71
2024/04/26 03:58:19;;;;;;;12.45;5.10;;;6.40;99.90;;;;;;5348870;26;20005;-70
2024/04/26 04:00:45;;;;;;;15.40;6.15;;;6.40;99.90;;;;;;5324865;26;20008;-69
2024/04/26 04:03:10;;;;;;;10.88;5.22;;;6.40;99.90;;;;;;5325810;26;20011;-71
2024/04/26 04:05:36;;;;;;;10.38;5.22;;;6.40;99.90;;;;;;5358771;26;20028;-70
2024/04/26 04:08:02;;;;;;;15.60;6.18;;;6.40;99.90;;;;;;5356005;26;20008;-70
2024/04/26 04:10:28;;;;;;;14.50;6.28;;;6.40;99.90;;;;;;5355604;26;20029;-71
2024/04/26 04:12:54;;;;;;;11.07;5.45;;;6.30;99.90;;;;;;5352760;26;20000;-70
2024/04/26 04:15:20;;;;;;;14.27;5.30;;;6.30;99.90;;;;;;5357192;26;20461;-70
2024/04/26 04:17:45;;;;;;;13.52;5.78;;;6.30;99.90;;;;;;5358159;26;20000;-69
2024/04/26 04:20:11;;;;;;;11.95;5.53;;;6.30;99.90;;;;;;5354085;26;20013;-70
2024/04/26 04:22:36;;;;;;;12.70;5.78;;;6.30;99.90;;;;;;5357081;26;20417;-70
2024/04/26 04:25:02;;;;;;;13.02;5.13;;;6.30;99.90;;;;;;5321235;26;20519;-70
2024/04/26 04:27:27;;;;;;;14.98;6.65;;;6.30;99.90;;;;;;5359401;26;20531;-73
2024/04/26 04:29:53;;;;;;;15.55;6.30;;;6.30;99.90;;;;;;5355064;26;20001;-68
2024/04/26 04:32:18;;;;;;;13.38;5.63;;;6.30;99.90;;;;;;5326975;26;20001;-71
2024/04/26 04:34:44;;;;;;;12.00;5.80;;;6.30;99.90;;;;;;5355952;26;20008;-70
2024/04/26 04:37:10;;;;;;;14.93;5.65;;;6.30;99.90;;;;;;5353309;26;20001;-70
2024/04/26 04:39:39;;;;;;;15.35;6.15;;;6.30;99.90;;;;;;5363020;26;20129;-75
2024/04/26 04:42:06;;;;;;;15.70;5.80;;;6.30;99.90;;;;;;5352438;26;19992;-70
2024/04/26 04:44:31;;;;;;;14.30;6.22;;;6.30;99.90;;;;;;5359365;26;20014;-71
2024/04/26 04:46:56;;;;;;;14.68;5.55;;;6.30;99.90;;;;;;5354427;26;20005;-71
2024/04/26 04:49:22;;;;;;;10.68;4.43;;;6.40;99.90;;;;;;5360734;26;20346;-71
2024/04/26 04:51:48;;;;;;;14.50;5.38;;;6.40;99.90;;;;;;5354597;26;20441;-69
2024/04/26 04:54:13;;;;;;;16.15;5.68;;;6.30;99.90;;;;;;5323255;26;20555;-71
2024/04/26 04:56:39;;;;;;;9.63;4.80;;;6.40;99.90;;;;;;5352903;26;20012;-75
2024/04/26 04:59:04;;;;;;;15.02;6.00;;;6.40;99.90;;;;;;5344155;26;20005;-70
2024/04/26 05:01:30;;;;;;;9.88;4.57;;;6.40;99.90;;;;;;5356313;26;20040;-69
2024/04/26 05:03:55;;;;;;;11.45;5.38;;;6.40;99.90;;;;;;5326837;26;20004;-71
2024/04/26 05:06:21;;;;;;;10.95;4.65;;;6.40;99.90;;;;;;5362608;26;20405;-71
2024/04/26 05:08:46;;;;;;;9.18;4.97;;;6.40;99.90;;;;;;5351621;26;20413;-72
2024/04/26 05:11:12;;;;;;;18.90;5.45;;;6.40;99.90;;;;;;5354443;26;20071;-71
2024/04/26 05:13:37;;;;;;;11.15;4.75;;;6.50;99.90;;;;;;5360185;26;20040;-70
2024/04/26 05:16:03;;;;;;;10.63;4.85;;;6.50;99.90;;;;;;5356192;26;20041;-72
2024/04/26 05:18:29;;;;;;;9.07;4.45;;;6.50;99.90;;;;;;5359295;26;20330;-71
2024/04/26 05:20:55;;;;;;;12.52;5.15;;;6.60;99.90;;;;;;5358817;26;20024;-71
2024/04/26 05:23:21;;;;;;;9.05;4.75;;;6.60;99.90;;;;;;5358453;26;20078;-72
2024/04/26 05:25:46;;;;;;;10.70;4.30;;;6.60;99.90;;;;;;5357094;26;20643;-70
2024/04/26 05:28:12;;;;;;;11.80;3.72;;;6.60;99.90;;;;;;5319253;26;20086;-68
2024/04/26 05:30:37;;;;;;;9.32;4.53;;;6.70;99.90;;;;;;5334265;26;20467;-70
2024/04/26 05:33:03;;;;;;;10.13;4.30;;;6.70;99.90;;;;;;5351891;26;20086;-71
2024/04/26 05:35:29;;;;;;;9.07;4.57;;;6.70;99.90;;;;;;5358176;26;20461;-71
2024/04/26 05:37:55;;;;;;;9.68;4.38;;;6.70;99.90;;;;;;5353302;26;20036;-70
2024/04/26 05:40:20;;;;;;;10.18;3.70;;;6.70;99.90;;;;;;5360373;26;20008;-70
2024/04/26 05:42:46;;;;;;;9.10;3.97;;;6.70;99.90;;;;;;5355972;26;20000;-69
2024/04/26 05:45:12;;;;;;;8.18;3.70;;;6.70;99.90;;;;;;5359134;26;20012;-74
2024/04/26 05:47:37;;;;;;;8.10;3.88;;;6.70;99.90;;;;;;5357689;26;20032;-72
2024/04/26 05:50:03;;;;;;;9.68;4.07;;;6.70;99.90;;;;;;5351984;26;20067;-72
2024/04/26 05:52:29;;;;;;;10.02;4.18;;;6.80;99.90;;;;;;5357379;26;19997;-71
2024/04/26 05:54:54;;;;;;;7.85;4.00;;;6.80;99.90;;;;;;5369625;26;20608;-70
2024/04/26 05:57:20;;;;;;;11.93;3.90;;;6.90;99.90;;;;;;5358699;26;20001;-72
2024/04/26 05:59:45;;;;;;;8.82;4.13;;;7.20;99.90;;;;;;5324553;26;20008;-71
2024/04/26 06:02:11;;;;;;;9.32;3.75;;;7.80;99.90;;;;;;5351567;26;20520;-72
2024/04/26 06:04:39;;;;;;;6.90;2.97;;;8.50;99.90;;;;;;5352044;26;19997;-72
2024/04/26 06:07:05;;;;;;;5.55;2.50;;;9.20;99.90;;;;;;5358727;26;20075;-72
2024/04/26 06:09:31;;;;;;;5.47;2.67;;;9.70;99.90;;;;;;5346681;26;20001;-73
2024/04/26 06:11:56;;;;;;;8.38;3.10;;;10.50;99.90;;;;;;5352213;26;20016;-73
2024/04/26 06:14:22;;;;;;;4.88;2.10;;;11.30;99.90;;;;;;5353954;26;20005;-70
2024/04/26 06:16:47;;;;;;;2.90;1.52;;;12.30;99.90;;;;;;5356522;26;20012;-67
2024/04/26 06:19:13;;;;;;;4.28;2.33;;;13.20;99.90;;;;;;5356087;26;20004;-73
2024/04/26 06:21:39;;;;;;;4.95;1.65;;;14.10;99.90;;;;;;5324455;26;20005;-75
2024/04/26 06:24:06;;;;;;;4.88;1.70;;;14.90;99.90;;;;;;5357241;26;20549;-72
2024/04/26 06:26:32;;;;;;;4.05;1.85;;;15.70;99.90;;;;;;5351017;26;20032;-74
2024/04/26 06:28:58;;;;;;;3.40;1.85;;;16.40;99.90;;;;;;5356221;26;20073;-72
2024/04/26 06:31:24;;;;;;;3.85;1.55;;;17.20;99.90;;;;;;5358150;26;20005;-75
2024/04/26 06:33:50;;;;;;;4.95;1.92;;;17.80;99.90;;;;;;5352055;26;20012;-72
2024/04/26 06:36:15;;;;;;;3.15;1.65;;;18.10;99.90;;;;;;5352703;26;21391;-74
2024/04/26 06:38:41;;;;;;;3.35;1.48;;;18.50;99.90;;;;;;5354305;26;20001;-72
2024/04/26 06:41:06;;;;;;;3.38;1.80;;;18.80;99.90;;;;;;5362288;26;20001;-75
2024/04/26 06:43:32;;;;;;;2.78;1.20;;;19.40;99.90;;;;;;5356405;26;20000;-74
2024/04/26 06:45:57;;;;;;;3.83;1.35;;;19.70;99.90;;;;;;5357533;26;20004;-71
2024/04/26 06:48:23;;;;;;;3.90;1.23;;;20.00;99.90;;;;;;5349433;26;20000;-75
2024/04/26 06:50:49;;;;;;;2.83;1.23;;;20.00;99.40;;;;;;5355120;26;20453;-73
2024/04/26 06:53:15;;;;;;;2.58;1.02;;;20.20;99.10;;;;;;5360818;26;20092;-72
2024/04/26 06:55:40;;;;;;;2.20;1.02;;;20.80;98.40;;;;;;5350086;26;20000;-72
2024/04/26 06:58:06;;;;;;;3.42;1.10;;;21.40;97.90;;;;;;5355380;26;20506;-73
2024/04/26 07:00:31;;;;;;;5.40;1.40;;;21.10;96.90;;;;;;5352615;26;20005;-73
2024/04/26 07:02:57;;;;;;;1.60;1.00;;;21.30;97.20;;;;;;5358175;26;20087;-73
2024/04/26 07:05:23;;;;;;;6.13;1.65;;;21.60;96.90;;;;;;5352631;26;20012;-74
2024/04/26 07:07:48;;;;;;;1.48;1.02;;;21.30;95.30;;;;;;5326774;26;20015;-73
2024/04/26 07:10:15;;;;;;;6.75;0.85;;;21.50;95.70;;;;;;5353623;26;20019;-74
2024/04/26 07:12:40;;;;;;;1.88;0.77;;;21.00;93.60;;;;;;5355048;26;20450;-72
2024/04/26 07:15:06;;;;;;;3.50;0.90;;;20.50;92.60;;;;;;5324721;26;20074;-73
2024/04/26 07:17:32;;;;;;;2.83;0.45;;;19.70;93.30;;;;;;5350360;26;20029;-75
2024/04/26 07:19:57;;;;;;;2.55;0.57;;;19.00;94.60;;;;;;5356524;26;20015;-75
2024/04/26 07:22:23;;;;;;;3.08;0.52;;;18.10;95.60;;;;;;5352913;26;20012;-72
2024/04/26 07:24:50;;;;;;;2.42;0.63;;;17.40;96.10;;;;;;5356395;26;20018;-73
2024/04/26 07:27:15;;;;;;;1.17;0.85;;;16.70;96.10;;;;;;5352390;26;20457;-72
2024/04/26 07:29:41;;;;;;;1.45;0.20;;;15.90;96.70;;;;;;5356576;26;20070;-72
2024/04/26 07:32:07;;;;;;;2.28;0.32;;;15.50;98.40;;;;;;5355855;26;20004;-72
2024/04/26 07:34:32;;;;;;;2.42;0.30;;;15.20;97.70;;;;;;5352537;26;20378;-72
2024/04/26 07:36:58;;;;;;;2.50;0.40;;;15.10;97.50;;;;;;5357335;26;20081;-73
2024/04/26 07:39:24;;;;;;;0.93;0.20;;;14.90;97.10;;;;;;5356196;26;20019;-73
2024/04/26 07:41:49;;;;;;;1.08;0.20;;;14.60;98.10;;;;;;5319948;26;20000;-71
2024/04/26 07:44:15;;;;;;;1.95;0.40;;;14.40;97.80;;;;;;5359814;26;20000;-75
2024/04/26 07:46:41;;;;;;;1.33;0.05;;;14.10;99.50;;;;;;5354168;26;20011;-72
2024/04/26 07:49:06;;;;;;;3.50;0.43;;;13.90;99.90;;;;;;5359254;26;20029;-72
2024/04/26 07:51:32;;;;;;;0.82;0.10;;;13.80;99.90;;;;;;5355834;26;20011;-71
2024/04/26 07:53:57;;;;;;;3.60;0.47;;;13.80;99.90;;;;;;5355315;26;20016;-71
2024/04/26 07:56:23;;;;;;;1.98;0.30;;;13.60;99.90;;;;;;5327195;26;20032;-70
2024/04/26 07:58:51;;;;;;;2.38;0.57;;;13.60;99.90;;;;;;5359272;26;20015;-74
2024/04/26 08:01:18;;;;;;;3.20;0.20;;;13.50;99.90;;;;;;5350579;26;20018;-71
2024/04/26 08:03:45;;;;;;;1.00;0.20;;;13.40;99.90;;;;;;5355435;26;20012;-71
2024/04/26 08:06:12;;;;;;;2.80;0.30;;;13.60;99.90;;;;;;5368510;26;20003;-72
2024/04/26 08:08:37;;;;;;;5.05;0.60;;;13.80;99.90;;;;;;5358900;26;19996;-72
2024/04/26 08:11:03;;;;;;;4.47;0.30;;;13.80;99.70;;;;;;5356874;26;20000;-72
2024/04/26 08:13:29;;;;;;;5.32;0.50;;;13.90;99.90;;;;;;5354556;26;20341;-72
2024/04/26 08:15:54;;;;;;;1.73;0.25;;;13.90;99.90;;;;;;5335539;26;19997;-72
2024/04/26 08:18:20;;;;;;;5.25;0.55;;;13.60;99.30;;;;;;5358430;26;19997;-72
2024/04/26 08:20:45;;;;;;;1.77;0.10;;;13.40;99.90;;;;;;5353537;26;20005;-72
2024/04/26 08:23:11;;;;;;;1.52;0.10;;;13.30;99.90;;;;;;5350540;26;20071;-72
2024/04/26 08:25:36;;;;;;;0.52;0.10;;;13.50;99.90;;;;;;5353240;26;20005;-71
2024/04/26 08:28:02;;;;;;;4.32;0.52;;;13.60;99.90;;;;;;5356579;26;20027;-71
2024/04/26 08:30:29;;;;;;;2.83;0.40;;;13.90;99.90;;;;;;5353027;26;20080;-73
2024/04/26 08:32:55;;;;;;;0.95;0.20;;;14.10;99.90;;;;;;5357674;26;19996;-72
2024/04/26 08:35:21;;;;;;;1.65;0.30;;;14.20;99.90;;;;;;5352910;26;20123;-72
2024/04/26 08:37:46;;;;;;;1.95;0.10;;;14.10;99.00;;;;;;5362329;26;20013;-73
2024/04/26 08:40:12;;;;;;;1.38;0.20;;;13.90;99.90;;;;;;5365835;26;20001;-74
2024/04/26 08:42:38;;;;;;;0.80;0.10;;;13.70;99.90;;;;;;5354398;26;20007;-73
2024/04/26 08:45:07;;;;;;;1.65;0.43;;;13.50;99.90;;;;;;5361054;26;20008;-71
2024/04/26 08:47:35;;;;;;;1.08;0.22;;;13.20;99.90;;;;;;5360031;26;20009;-74
2024/04/26 08:50:04;;;;;;;3.78;0.30;;;13.00;99.90;;;;;;5360934;26;20001;-72
2024/04/26 08:52:33;;;;;;;3.25;0.32;;;13.00;99.90;;;;;;5317716;26;20011;-72
2024/04/26 08:55:00;;;;;;;1.08;0.20;;;12.90;99.90;;;;;;5358355;26;20015;-72
2024/04/26 08:57:26;;;;;;;1.52;0.22;;;13.00;99.90;;;;;;5355285;26;20016;-73
2024/04/26 08:59:55;;;;;;;0.88;0.20;;;13.20;99.90;;;;;;5373871;26;20434;-74
2024/04/26 09:02:21;;;;;;;0.50;0.10;;;13.40;99.90;;;;;;5363883;26;20001;-71
2024/04/26 09:04:49;;;;;;;0.73;0.10;;;13.70;99.90;;;;;;5365784;26;20004;-72
2024/04/26 09:07:15;;;;;;;2.08;1.00;;;13.90;99.90;;;;;;5364321;26;20746;-71
2024/04/26 09:09:40;;;;;;;1.52;0.25;;;14.10;99.90;;;;;;5358076;26;20023;-73
2024/04/26 09:12:06;;;;;;;1.75;0.30;;;14.00;99.90;;;;;;5351276;26;20009;-72
2024/04/26 09:14:32;;;;;;;1.98;0.63;;;14.00;99.90;;;;;;5357584;26;20019;-72
2024/04/26 09:16:57;;;;;;;0.63;0.30;;;13.90;98.40;;;;;;5358662;26;20005;-72
2024/04/26 09:19:23;;;;;;;3.20;0.10;;;13.90;98.60;;;;;;5371891;26;20371;-71
2024/04/26 09:21:48;;;;;;;1.95;0.75;;;13.90;99.90;;;;;;5362705;26;20028;-72
2024/04/26 09:24:14;;;;;;;1.52;0.10;;;14.10;96.80;;;;;;5352586;26;20016;-73
2024/04/26 09:26:40;;;;;;;2.05;0.20;;;14.10;98.70;;;;;;5357380;26;20008;-71
2024/04/26 09:29:06;;;;;;;1.38;0.20;;;14.20;98.50;;;;;;5351939;26;20000;-72
2024/04/26 09:31:32;;;;;;;0.75;0.20;;;14.30;99.20;;;;;;5356238;26;20470;-72
2024/04/26 09:33:59;;;;;;;1.83;0.15;;;14.50;99.10;;;;;;5359047;26;20076;-72
2024/04/26 09:36:25;;;;;;;1.02;0.25;;;14.80;99.70;;;;;;5356683;26;20000;-72
2024/04/26 09:38:55;;;;;;;0.77;0.10;;;15.10;99.60;;;;;;5359664;26;20000;-73
2024/04/26 09:41:24;;;;;;;0.70;0.20;;;15.30;99.10;;;;;;5347408;26;20000;-72
2024/04/26 09:43:49;;;;;;;6.50;0.40;;;15.50;97.40;;;;;;5329659;26;20037;-73
2024/04/26 09:46:20;;;;;;;1.88;0.60;;;15.40;96.50;;;;;;5358978;26;20000;-72
2024/04/26 09:48:46;;;;;;;;;;;15.30;97.30;;;;;;5353589;26;20094;-72
2024/04/26 09:51:12;;;;;;;1.15;0.20;;;15.20;97.60;;;;;;5355978;26;19926;-73
2024/04/26 09:53:42;;;;;;;4.30;0.38;;;15.30;98.10;;;;;;5376156;26;19995;-71
2024/04/26 09:56:08;;;;;;;0.32;0.17;;;15.40;98.40;;;;;;5359987;26;20599;-71
2024/04/26 09:58:34;;;;;;;3.55;0.25;;;15.70;98.60;;;;;;5356285;26;20011;-69
2024/04/26 10:01:00;;;;;;;1.80;0.10;;;15.30;98.10;;;;;;5357426;26;19996;-72
2024/04/26 10:03:26;;;;;;;2.40;0.20;;;14.90;98.40;;;;;;5363045;26;20032;-73
2024/04/26 10:06:00;;;;;;;1.33;0.40;;;14.20;98.90;;;;;;5368540;26;20011;-71
2024/04/26 10:08:35;;;;;;;0.85;0.05;;;13.70;99.60;;;;;;5353651;26;20019;-70
2024/04/26 10:11:12;;;;;;;0.63;0.10;;;13.50;99.90;;;;;;5328513;26;20052;-74
2024/04/26 10:13:56;;;;;;;3.80;0.35;;;13.20;99.90;;;;;;5352688;26;20015;-73
2024/04/26 10:16:32;;;;;;;1.55;0.40;;;12.90;99.90;;;;;;5320584;26;19996;-73
2024/04/26 10:18:58;;;;;;;2.80;0.20;;;13.00;99.90;;;;;;5325969;26;19993;-71
2024/04/26 10:21:27;;;;;;;0.68;0.15;;;13.10;99.90;;;;;;5357271;26;20481;-73
2024/04/26 10:23:59;;;;;;;0.70;0.10;;;13.10;99.90;;;;;;5352577;26;20005;-73
2024/04/26 10:26:25;;;;;;;4.53;0.32;;;13.30;99.90;;;;;;5323307;26;20016;-72
2024/04/26 10:28:51;;;;;;;1.17;0.30;;;13.30;99.70;;;;;;5345499;26;20054;-72
2024/04/26 10:31:28;;;;;;;4.15;0.38;;;13.40;99.90;;;;;;5345386;26;20022;-73
2024/04/26 10:33:54;;;;;;;1.85;0.20;;;13.40;99.80;;;;;;5350953;26;20005;-73
2024/04/26 10:36:20;;;;;;;1.70;0.60;;;13.30;98.90;;;;;;5336579;26;20011;-73
2024/04/26 10:38:46;;;;;;;4.25;0.30;;;13.20;99.90;;;;;;5350481;26;20005;-73
2024/04/26 10:41:17;;;;;;;7.28;0.30;;;13.10;99.90;;;;;;5363994;26;20047;-73
2024/04/26 10:43:42;;;;;;;1.42;0.25;;;13.00;99.90;;;;;;5353602;26;20000;-72
2024/04/26 10:46:08;;;;;;;0.85;0.20;;;13.00;99.90;;;;;;5353771;26;20515;-72
2024/04/26 10:48:35;;;;;;;0.82;0.30;;;13.10;99.90;;;;;;5353408;26;20001;-72
2024/04/26 10:51:09;;;;;;;2.42;0.20;;;13.30;99.70;;;;;;5350120;26;20013;-72
2024/04/26 10:53:36;;;;;;;2.55;0.80;;;13.50;99.60;;;;;;5358848;26;20011;-71
2024/04/26 10:56:02;;;;;;;1.15;0.10;;;13.70;99.40;;;;;;5353154;26;20001;-71
2024/04/26 10:58:38;;;;;;;0.30;0.10;;;13.90;98.80;;;;;;5351980;26;20380;-70
2024/04/26 11:01:04;;;;;;;1.02;0.20;;;14.10;97.00;;;;;;5351002;26;20061;-72
2024/04/26 11:03:30;;;;;;;1.80;0.20;;;14.20;97.90;;;;;;5353714;26;20000;-72
2024/04/26 11:05:55;;;;;;;0.32;0.03;;;14.20;96.00;;;;;;5353345;26;20301;-72
2024/04/26 11:08:25;;;;;;;4.57;0.20;;;14.10;97.10;;;;;;5353075;26;20020;-71
2024/04/26 11:10:51;;;;;;;0.77;0.27;;;14.10;97.70;;;;;;5351098;26;20012;-70
2024/04/26 11:13:24;;;;;;;2.20;0.17;;;14.20;97.70;;;;;;5353605;26;20019;-72
2024/04/26 11:15:54;;;;;;;1.88;0.32;;;14.60;98.10;;;;;;5344687;26;20000;-73
2024/04/26 11:18:21;;;;;;;0.80;0.20;;;14.80;97.90;;;;;;5354649;26;20008;-70
2024/04/26 11:20:47;;;;;;;1.63;0.25;;;15.10;98.10;;;;;;5352389;26;20000;-73
2024/04/26 11:23:13;;;;;;;1.20;0.40;;;15.00;97.30;;;;;;5350392;26;20005;-71
2024/04/26 11:25:38;;;;;;;0.60;0.13;;;14.90;97.90;;;;;;5352592;26;20750;-72
2024/04/26 11:28:04;;;;;;;0.30;0.10;;;14.60;98.50;;;;;;5354702;26;20012;-71
2024/04/26 11:30:30;;;;;;;0.73;0.30;;;14.60;98.80;;;;;;5356818;26;20001;-73
2024/04/26 11:32:55;;;;;;;2.22;0.30;;;14.50;97.90;;;;;;5350345;26;20434;-72
2024/04/26 11:35:21;;;;;;;4.70;0.47;;;14.20;98.70;;;;;;5352637;26;20469;-72
2024/04/26 11:37:47;;;;;;;4.75;0.40;;;14.10;99.20;;;;;;5342407;26;20001;-72
2024/04/26 11:40:12;;;;;;;4.07;0.30;;;14.00;99.30;;;;;;5364079;26;20005;-71
2024/04/26 11:42:38;;;;;;;1.10;0.30;;;13.80;98.80;;;;;;5350754;26;20005;-72
2024/04/26 11:45:04;;;;;;;1.80;0.50;;;13.90;99.50;;;;;;5354444;26;20090;-72
2024/04/26 11:47:29;;;;;;;1.25;0.30;;;14.00;98.70;;;;;;5350944;26;20011;-73
2024/04/26 11:49:55;;;;;;;2.13;0.10;;;14.10;98.60;;;;;;5347787;26;20005;-71
2024/04/26 11:52:20;;;;;;;3.72;0.50;;;14.20;99.10;;;;;;5350107;26;20000;-69
2024/04/26 11:54:46;;;;;;;0.70;0.30;;;14.20;98.10;;;;;;5374675;26;20764;-72
2024/04/26 11:57:12;;;;;;;1.55;0.25;;;14.30;98.30;;;;;;5355267;26;20246;-71
2024/04/26 11:59:37;;;;;;;3.22;0.20;;;14.30;97.60;;;;;;5349058;26;20001;-72
2024/04/26 12:02:03;;;;;;;0.95;0.20;;;14.30;97.40;;;;;;5351989;26;20087;-72
2024/04/26 12:04:28;;;;;;;1.00;0.40;;;14.10;97.20;;;;;;5349647;26;20015;-72
2024/04/26 12:06:54;;;;;;;3.00;0.40;;;14.20;97.10;;;;;;5353123;26;20007;-70
2024/04/26 12:09:19;;;;;;;2.25;0.43;;;14.10;97.30;;;;;;5353687;26;20078;-72
2024/04/26 12:11:45;;;;;;;0.85;0.20;;;14.20;97.50;;;;;;5344671;26;20077;-70
2024/04/26 12:14:11;;;;;;;2.38;0.90;;;14.30;96.60;;;;;;5362062;26;20640;-73
2024/04/26 12:16:37;;;;;;;2.28;0.10;;;14.40;96.30;;;;;;5349681;26;20568;-74
2024/04/26 12:19:02;;;;;;;0.25;0.10;;;14.40;95.30;;;;;;5353749;26;20037;-71
2024/04/26 12:21:28;;;;;;;1.55;0.20;;;14.30;95.50;;;;;;5356910;26;20004;-70
2024/04/26 12:23:56;;;;;;;0.90;0.13;;;14.20;96.30;;;;;;5352156;26;20033;-71
2024/04/26 12:26:23;;;;;;;0.50;0.22;;;14.10;96.90;;;;;;5351605;26;20518;-71
2024/04/26 12:28:49;;;;;;;0.70;0.35;;;14.30;96.40;;;;;;5356097;26;20040;-70
2024/04/26 12:31:16;;;;;;;1.95;0.55;;;14.40;96.80;;;;;;5323540;26;20474;-71
2024/04/26 12:33:42;;;;;;;3.03;0.20;;;14.50;96.10;;;;;;5356021;26;20064;-72
2024/04/26 12:36:07;;;;;;;5.50;0.65;;;14.40;97.00;;;;;;5354959;26;20000;-72
2024/04/26 12:38:34;;;;;;;1.88;0.10;;;14.50;96.00;;;;;;5320265;26;20016;-72
2024/04/26 12:41:00;;;;;;;1.58;0.40;;;14.50;95.70;;;;;;5364665;26;20366;-72
2024/04/26 12:43:26;;;;;;;1.80;0.40;;;14.50;96.70;;;;;;5369285;26;20004;-72